Aérodrome :
LOGIN :

S'inscrire | Disclaimer

   EN    FR    IT 

 










Légende :    VFR   VFR Marginal   IFR   IFR Intensif   IFR Très Intensif
Visi : 
Plafond : 
>= 8 km
>= 3000ft
5 à 8 km
1000 à 3000 ft
1500m à 5 km
500 à 1000 ft
800 à 1500m
200 à 500 ft
< 800m
< 200 ft
Symboles :   Orages  Brouillard  Fortes neiges  Fortes précipitations  Vent > 20 kt
SIGMETs :   Divers  Orages  Givrage  Turbulence  Onde Orograph.  Cendres Volcan.







- Altitude de l'aérodrome : 257 ft
- Code IATA : MAN
- Voir les cartes d'approche


EGCC - Manchester

DERNIER METAR :
  • 230450Z 26003KT 0400 R23R/0700 FZFG BKN001 M01/M02 Q0999 TEMPO 2000 BR BKN002

METARs EXPIRÉS :
  • 230420Z 26004KT 2000 BR FEW002 BKN021 M01/M01 Q0999 TEMPO BKN002
  • 230350Z VRB03KT 3800 BR FEW002 SCT013 OVC017 M00/M01 Q0999 TEMPO BKN002
  • 230320Z 32004KT 1400 R23R/P1500 BR BKN003 OVC010 M00/M01 Q0999 TEMPO BKN001
  • 230250Z 34004KT 0900 R23R/P1500 BR OVC003 00/M01 Q0998
  • 230220Z 30003KT 1900 HZ OVC003 00/M01 Q0998 TEMPO 0300 FG OVC001

TAF AMD TAF EGCC
Valide du 23 à 04h jusqu'au 24 à 06h UTC


230452Z 2304/2406 24006KT 9999 SCT020
TEMPO 2304/2310 1200 -SHRASN BKN004
PROB30
TEMPO 2304/2308 0600 FZFG BKN001
BECMG 2310/2312 7000
TEMPO 2312/2318 9999
PROB30
TEMPO 2322/2406 1200 SHRA -SHRASN BKN004
ATIS : +44 161 499 2324
Pas de NOTAMs connus pour ce terrain.



MET'MAP, la Météo Aéronautique d'un coup d'oeil ! - Copyright ORBIFLY Décembre 2007 - Disclaimer

ORBIFLY MET'MAP TEAM :

Programmation & Développement : Alexandra Zaïnal
Conception & Développement : Baudouin d'Aumeries
Co-Programmation & Développement : Marc-Olivier Méhu
Soutien technique & logistique : Manuel Goepfert

Contact : metmap@orbifly.com




SOURCES & CREDITS :

   NOAA